Time;durP1;ratioP1;P1;durP2;ratioP2;P2;SDS_P1;SDS_P2;PMS_P1;PMS_P2;Temp;Humidity;BMP_temperature;BMP_pressure;BME280_temperature;BME280_humidity;BME280_pressure;Samples;Min_cycle;Max_cycle;Signal;HPM_P1;HPM_P2
2022/11/30 00:00:51;;;;;;;11.00;8.97;;;;;;;7.81;100.00;99689.19;5111937;28;20194;-61
2022/11/30 00:03:20;;;;;;;11.70;8.80;;;;;;;7.80;100.00;99690.94;5112306;28;20268;-60
2022/11/30 00:05:47;;;;;;;10.80;8.70;;;;;;;7.77;100.00;99683.25;5112134;28;20198;-61
2022/11/30 00:08:14;;;;;;;12.13;9.30;;;;;;;7.71;100.00;99696.25;5112181;28;20643;-61
2022/11/30 00:10:41;;;;;;;13.23;10.13;;;;;;;7.69;100.00;99687.66;5111990;28;20218;-55
2022/11/30 00:13:09;;;;;;;11.67;9.60;;;;;;;7.75;100.00;99687.56;5112083;27;20205;-56
2022/11/30 00:15:36;;;;;;;10.50;9.13;;;;;;;7.80;100.00;99679.75;5111545;28;20218;-55
2022/11/30 00:18:03;;;;;;;13.73;9.70;;;;;;;7.78;100.00;99690.13;5111826;28;20662;-55
2022/11/30 00:20:32;;;;;;;14.33;9.90;;;;;;;7.81;100.00;99691.78;5111638;28;20207;-55
2022/11/30 00:22:59;;;;;;;11.87;9.87;;;;;;;7.76;100.00;99689.28;5111858;28;20675;-55
2022/11/30 00:25:26;;;;;;;16.10;10.97;;;;;;;7.72;100.00;99681.59;5111778;28;20203;-56
2022/11/30 00:27:53;;;;;;;12.67;9.50;;;;;;;7.78;100.00;99694.44;5111251;28;20183;-55
2022/11/30 00:30:20;;;;;;;11.60;8.43;;;;;;;7.82;100.00;99681.44;5111267;28;20209;-56
2022/11/30 00:32:47;;;;;;;14.07;9.93;;;;;;;7.74;100.00;99675.53;5110091;28;20577;-61
2022/11/30 00:35:16;;;;;;;13.07;9.80;;;;;;;7.81;100.00;99690.06;5111214;28;20680;-61
2022/11/30 00:37:45;;;;;;;11.87;9.13;;;;;;;7.78;100.00;99687.53;5111267;28;20218;-61
2022/11/30 00:40:13;;;;;;;12.00;9.30;;;;;;;7.71;100.00;99692.81;5111435;27;20198;-56
2022/11/30 00:42:40;;;;;;;11.47;9.33;;;;;;;7.52;100.00;99679.31;5111102;28;20205;-54
2022/11/30 00:45:07;;;;;;;12.33;9.33;;;;;;;7.62;100.00;99680.88;5111367;28;20204;-55
2022/11/30 00:47:35;;;;;;;13.83;9.73;;;;;;;7.68;100.00;99675.59;5111360;28;20217;-54
2022/11/30 00:50:02;;;;;;;14.60;10.20;;;;;;;7.74;100.00;99685.00;5111257;28;20271;-55
2022/11/30 00:52:29;;;;;;;13.20;10.40;;;;;;;7.73;100.00;99684.16;5111262;28;20201;-61
2022/11/30 00:54:57;;;;;;;12.73;9.30;;;;;;;7.73;100.00;99673.81;5110918;28;20666;-60
2022/11/30 00:57:24;;;;;;;10.40;8.77;;;;;;;7.67;100.00;99663.59;5110864;28;20222;-60
2022/11/30 00:59:51;;;;;;;9.50;8.50;;;;;;;7.79;100.00;99670.31;5110843;28;20205;-62
2022/11/30 01:02:18;;;;;;;11.63;8.43;;;;;;;7.71;100.00;99678.16;5111013;28;20199;-61
2022/11/30 01:04:45;;;;;;;8.67;7.77;;;;;;;7.69;100.00;99677.31;5110906;28;20203;-61
2022/11/30 01:07:12;;;;;;;9.57;7.90;;;;;;;7.66;100.00;99677.38;5110954;28;20603;-61
2022/11/30 01:09:39;;;;;;;10.73;8.53;;;;;;;7.62;100.00;99679.16;5110041;27;20190;-62
2022/11/30 01:12:07;;;;;;;10.37;7.93;;;;;;;7.71;100.00;99672.97;5110707;28;20201;-61
2022/11/30 01:14:34;;;;;;;9.50;7.63;;;;;;;7.73;100.00;99676.41;5110550;28;20198;-62
2022/11/30 01:17:01;;;;;;;8.77;7.10;;;;;;;7.62;100.00;99678.28;5110690;28;20609;-61
2022/11/30 01:19:28;;;;;;;8.33;6.57;;;;;;;7.60;100.00;99674.88;5110442;28;20233;-62
2022/11/30 01:21:55;;;;;;;8.37;7.03;;;;;;;7.71;100.00;99674.72;5110481;28;20585;-61
2022/11/30 01:24:22;;;;;;;7.90;6.97;;;;;;;7.66;100.00;99677.38;5110369;28;20255;-62
2022/11/30 01:26:49;;;;;;;8.50;6.63;;;;;;;7.68;100.00;99677.34;5110342;28;20191;-62
2022/11/30 01:29:17;;;;;;;9.20;7.87;;;;;;;7.68;100.00;99675.59;5110067;28;20195;-61
2022/11/30 01:31:44;;;;;;;10.77;6.80;;;;;;;7.76;100.00;99666.03;5110141;28;20234;-61
2022/11/30 01:34:11;;;;;;;8.53;7.13;;;;;;;7.79;100.00;99665.97;5109193;28;20194;-62
2022/11/30 01:36:38;;;;;;;7.83;7.03;;;;;;;7.88;100.00;99678.78;5109622;28;20253;-61
2022/11/30 01:39:07;;;;;;;8.37;7.17;;;;;;;7.71;100.00;99670.41;5109800;28;20587;-61
2022/11/30 01:41:35;;;;;;;10.47;7.63;;;;;;;7.81;100.00;99671.97;5110086;27;20206;-61
2022/11/30 01:44:36;;;;;;;8.03;7.23;;;;;;;7.76;100.00;99657.44;5110074;28;20671;-61
2022/11/30 01:47:09;;;;;;;7.27;6.57;;;;;;;7.83;100.00;99665.06;5110079;28;20701;-61
2022/11/30 01:49:39;;;;;;;8.67;7.13;;;;;;;7.83;100.00;99659.88;5109847;27;20612;-61
2022/11/30 01:52:10;;;;;;;8.20;6.50;;;;;;;7.75;100.00;99660.88;5110022;28;20281;-63
2022/11/30 01:54:43;;;;;;;9.80;7.20;;;;;;;7.85;100.00;99662.44;5109862;28;20195;-62
2022/11/30 01:57:15;;;;;;;8.80;6.90;;;;;;;7.88;100.00;99650.34;5109949;28;20219;-62
2022/11/30 01:59:43;;;;;;;6.97;6.27;;;;;;;7.98;100.00;99658.81;5110015;28;20814;-62
2022/11/30 02:02:11;;;;;;;7.80;6.83;;;;;;;7.82;100.00;99658.19;5109900;28;20281;-62
2022/11/30 02:04:38;;;;;;;7.27;6.53;;;;;;;7.90;100.00;99663.25;5109930;28;20582;-61
2022/11/30 02:07:07;;;;;;;7.17;6.47;;;;;;;7.93;100.00;99660.59;5109978;28;20197;-61
2022/11/30 02:09:42;;;;;;;6.97;5.90;;;;;;;7.82;100.00;99659.91;5109777;28;20197;-62
2022/11/30 02:12:16;;;;;;;6.40;5.90;;;;;;;7.94;100.00;99659.72;5109785;28;20194;-61
2022/11/30 02:14:49;;;;;;;6.53;5.93;;;;;;;8.02;100.00;99650.09;5109941;28;20220;-62
2022/11/30 02:17:26;;;;;;;6.70;6.10;;;;;;;8.00;100.00;99657.91;5109755;28;20224;-61
2022/11/30 02:20:25;;;;;;;7.37;6.50;;;;;;;7.71;100.00;99638.53;5109587;28;20238;-62
2022/11/30 02:23:14;;;;;;;7.37;6.53;;;;;;;7.66;100.00;99651.56;5109575;28;20206;-62
2022/11/30 02:25:53;;;;;;;7.20;6.57;;;;;;;7.78;100.00;99648.78;5109749;28;20288;-57
2022/11/30 02:28:43;;;;;;;7.70;6.50;;;;;;;7.77;100.00;99648.81;5109709;28;20194;-55
2022/11/30 02:31:17;;;;;;;7.20;6.50;;;;;;;7.89;100.00;99657.22;5109446;28;20603;-55
2022/11/30 02:33:47;;;;;;;7.50;6.80;;;;;;;7.91;100.00;99663.19;5109687;28;20585;-56
2022/11/30 02:36:14;;;;;;;8.27;7.10;;;;;;;7.91;100.00;99665.78;5109738;28;20292;-56
2022/11/30 02:38:42;;;;;;;7.20;6.50;;;;;;;7.96;100.00;99657.97;5109464;28;20201;-56
2022/11/30 02:41:09;;;;;;;7.33;6.70;;;;;;;7.96;100.00;99658.81;5109692;28;20584;-56
2022/11/30 02:43:38;;;;;;;7.70;6.90;;;;;;;8.03;100.00;99652.66;5109410;28;20205;-54
2022/11/30 02:46:12;;;;;;;7.97;7.17;;;;;;;7.95;100.00;99657.13;5109436;28;20203;-55
2022/11/30 02:48:44;;;;;;;7.97;7.23;;;;;;;7.86;100.00;99665.00;5109571;28;20581;-55
2022/11/30 02:51:15;;;;;;;7.43;6.80;;;;;;;7.94;100.00;99670.91;5109469;28;20208;-55
2022/11/30 02:53:43;;;;;;;7.43;6.73;;;;;;;7.96;100.00;99661.41;5109527;28;20229;-56
2022/11/30 02:56:09;;;;;;;8.43;7.47;;;;;;;7.90;100.00;99671.81;5110621;28;20205;-56
2022/11/30 02:58:38;;;;;;;8.07;7.27;;;;;;;7.87;100.00;99666.72;5113402;28;20195;-56
2022/11/30 03:01:05;;;;;;;8.03;7.23;;;;;;;7.80;100.00;99667.69;5113551;28;20286;-55
2022/11/30 03:03:32;;;;;;;9.80;7.93;;;;;;;7.84;100.00;99669.34;5113266;28;20197;-54
2022/11/30 03:05:59;;;;;;;8.40;7.17;;;;;;;7.88;100.00;99668.44;5113114;28;20199;-54
2022/11/30 03:08:26;;;;;;;9.63;8.27;;;;;;;7.83;100.00;99672.81;5113372;28;20670;-61
2022/11/30 03:10:53;;;;;;;8.77;7.90;;;;;;;7.79;100.00;99662.56;5113050;28;20199;-61
2022/11/30 03:13:19;;;;;;;8.93;7.40;;;;;;;7.80;100.00;99672.84;5113433;27;20199;-62
2022/11/30 03:15:48;;;;;;;8.80;7.93;;;;;;;7.76;100.00;99662.59;5112724;28;20289;-62
2022/11/30 03:18:15;;;;;;;10.60;8.40;;;;;;;7.87;100.00;99677.06;5112895;28;20667;-61
2022/11/30 03:20:42;;;;;;;10.63;7.87;;;;;;;7.92;100.00;99671.81;5113035;28;20729;-62
2022/11/30 03:23:09;;;;;;;8.87;7.97;;;;;;;7.99;100.00;99670.84;5112698;28;20277;-57
2022/11/30 03:25:36;;;;;;;9.80;8.30;;;;;;;7.85;100.00;99667.63;5112806;28;20208;-63
2022/11/30 03:28:03;;;;;;;9.77;8.53;;;;;;;7.86;100.00;99675.34;5112602;28;20754;-56
2022/11/30 03:30:30;;;;;;;11.90;9.10;;;;;;;7.87;100.00;99671.03;5112600;28;20309;-61
2022/11/30 03:32:58;;;;;;;10.57;8.73;;;;;;;7.85;100.00;99677.97;5112408;28;20194;-55
2022/11/30 03:35:25;;;;;;;13.03;8.87;;;;;;;7.94;100.00;99673.50;5112861;28;20195;-55
2022/11/30 03:37:52;;;;;;;9.57;7.90;;;;;;;7.98;100.00;99680.34;5112236;28;20309;-62
2022/11/30 03:40:19;;;;;;;9.13;8.10;;;;;;;7.99;100.00;99678.59;5112767;28;20583;-62
2022/11/30 03:42:46;;;;;;;10.60;8.90;;;;;;;8.01;100.00;99669.09;5112139;28;20285;-61
2022/11/30 03:45:13;;;;;;;10.23;9.13;;;;;;;8.01;100.00;99674.28;5112348;28;20203;-62
2022/11/30 03:47:40;;;;;;;12.17;9.50;;;;;;;8.05;100.00;99680.22;5112384;28;20190;-62
2022/11/30 03:50:10;;;;;;;10.03;8.80;;;;;;;7.90;100.00;99687.31;5112311;27;20198;-61
2022/11/30 03:52:36;;;;;;;12.30;8.77;;;;;;;7.86;100.00;99670.19;5112437;28;20202;-61
2022/11/30 03:55:04;;;;;;;8.97;8.07;;;;;;;8.00;100.00;99683.75;5112475;28;20628;-55
2022/11/30 03:57:31;;;;;;;10.20;8.90;;;;;;;7.91;100.00;99689.03;5112288;28;20678;-56
2022/11/30 03:59:58;;;;;;;10.20;8.73;;;;;;;7.91;100.00;99688.19;5112336;28;20221;-57
2022/11/30 04:02:24;;;;;;;9.70;8.67;;;;;;;7.87;100.00;99677.06;5111994;28;20194;-59
2022/11/30 04:04:51;;;;;;;15.00;10.37;;;;;;;7.86;100.00;99680.53;5111756;28;20202;-55
2022/11/30 04:07:20;;;;;;;13.73;9.97;;;;;;;7.83;100.00;99680.56;5112043;28;20191;-55
2022/11/30 04:09:47;;;;;;;13.37;10.40;;;;;;;7.80;100.00;99682.31;5111862;27;20205;-56
2022/11/30 04:12:14;;;;;;;15.07;11.37;;;;;;;7.80;100.00;99682.31;5111834;28;20230;-58
2022/11/30 04:14:41;;;;;;;14.97;10.80;;;;;;;7.71;100.00;99691.06;5111586;28;20194;-55
2022/11/30 04:17:08;;;;;;;17.00;12.40;;;;;;;7.75;100.00;99687.56;5111995;28;20608;-55
2022/11/30 04:19:35;;;;;;;18.47;13.13;;;;;;;7.74;100.00;99690.19;5111620;28;20238;-55
2022/11/30 04:22:02;;;;;;;21.27;13.87;;;;;;;7.80;100.00;99682.31;5110529;28;20306;-55
2022/11/30 04:24:30;;;;;;;20.83;14.40;;;;;;;7.77;100.00;99695.31;5091268;28;20253;-55
2022/11/30 04:26:57;;;;;;;20.10;14.57;;;;;;;7.76;100.00;99697.03;5105130;28;20269;-55
2022/11/30 04:29:24;;;;;;;21.43;14.10;;;;;;;7.81;100.00;99691.78;5111194;28;20282;-55
2022/11/30 04:31:50;;;;;;;24.03;15.67;;;;;;;7.86;100.00;99695.16;5110914;28;20644;-54
2022/11/30 04:34:17;;;;;;;22.17;15.47;;;;;;;7.84;100.00;99690.03;5111691;28;20209;-54
2022/11/30 04:36:44;;;;;;;20.90;13.87;;;;;;;7.83;100.00;99692.63;5111273;28;20191;-56
2022/11/30 04:39:11;;;;;;;21.73;14.37;;;;;;;7.78;100.00;99692.72;5110889;28;20194;-54
2022/11/30 04:41:39;;;;;;;24.13;15.70;;;;;;;7.88;100.00;99694.28;5111464;28;20195;-54
2022/11/30 04:44:06;;;;;;;22.63;15.90;;;;;;;7.95;100.00;99697.59;5111306;28;20201;-54
2022/11/30 04:46:33;;;;;;;22.03;15.40;;;;;;;7.85;100.00;99689.16;5111127;28;20202;-54
2022/11/30 04:49:00;;;;;;;23.53;15.93;;;;;;;7.86;100.00;99698.59;5106443;28;20215;-54
2022/11/30 04:51:27;;;;;;;19.17;14.23;;;;;;;7.89;100.00;99697.72;5090747;28;20298;-56
2022/11/30 04:53:54;;;;;;;23.13;15.47;;;;;;;7.82;100.00;99694.34;5090620;28;20215;-54
2022/11/30 04:56:21;;;;;;;22.93;15.80;;;;;;;7.88;100.00;99691.69;5090797;28;20225;-55
2022/11/30 04:58:49;;;;;;;19.77;14.50;;;;;;;7.94;100.00;99690.72;5090459;28;20230;-58
2022/11/30 05:01:16;;;;;;;18.63;13.50;;;;;;;7.92;100.00;99687.31;5090542;28;20195;-59
2022/11/30 05:03:43;;;;;;;16.27;13.13;;;;;;;7.91;100.00;99701.97;5090610;28;20409;-60
2022/11/30 05:06:10;;;;;;;19.47;15.13;;;;;;;7.91;100.00;99704.53;5090378;28;20195;-60
2022/11/30 05:08:37;;;;;;;16.93;13.00;;;;;;;7.92;100.00;99706.25;5090400;28;20659;-61
2022/11/30 05:11:04;;;;;;;15.43;11.73;;;;;;;7.98;100.00;99703.59;5090367;28;20199;-60
2022/11/30 05:13:31;;;;;;;15.83;11.40;;;;;;;8.09;100.00;99702.56;5090248;28;20560;-61
2022/11/30 05:15:59;;;;;;;13.17;10.60;;;;;;;8.09;100.00;99707.75;5090022;28;20249;-57
2022/11/30 05:18:26;;;;;;;9.73;8.37;;;;;;;7.99;100.00;99710.47;5089727;28;20219;-56
2022/11/30 05:20:53;;;;;;;10.83;8.47;;;;;;;7.97;100.00;99708.78;5089819;28;20214;-57
2022/11/30 05:23:21;;;;;;;10.73;9.63;;;;;;;7.97;100.00;99709.63;5089802;28;20203;-57
2022/11/30 05:25:48;;;;;;;12.50;9.73;;;;;;;8.03;100.00;99711.25;5089995;28;20203;-57
2022/11/30 05:28:15;;;;;;;12.43;10.73;;;;;;;8.08;100.00;99716.38;5089928;28;20579;-56
2022/11/30 05:30:43;;;;;;;15.73;10.27;;;;;;;8.07;100.00;99714.66;5089650;28;20306;-56
2022/11/30 05:33:12;;;;;;;13.80;10.17;;;;;;;8.05;100.00;99716.41;5089836;28;20290;-56
2022/11/30 05:35:39;;;;;;;12.23;9.90;;;;;;;8.02;100.00;99728.50;5089701;28;20675;-57
2022/11/30 05:38:06;;;;;;;10.03;9.03;;;;;;;8.08;100.00;99729.28;5089884;28;20229;-56
2022/11/30 05:40:33;;;;;;;10.80;9.57;;;;;;;8.13;100.00;99725.75;5089662;28;20286;-56
2022/11/30 05:43:02;;;;;;;12.37;9.23;;;;;;;8.10;100.00;99735.31;5089523;28;20224;-57
2022/11/30 05:45:29;;;;;;;14.13;9.27;;;;;;;8.08;100.00;99731.88;5089794;28;20195;-57
2022/11/30 05:47:56;;;;;;;9.73;8.17;;;;;;;8.13;100.00;99750.75;5089644;28;20195;-56
2022/11/30 05:50:24;;;;;;;9.33;8.17;;;;;;;8.03;100.00;99742.28;5089827;28;20309;-57
2022/11/30 05:52:54;;;;;;;8.00;7.23;;;;;;;8.00;100.00;99743.22;5089513;28;20210;-61
2022/11/30 05:55:21;;;;;;;10.67;8.40;;;;;;;7.92;100.00;99742.44;5089470;28;20203;-61
2022/11/30 05:57:48;;;;;;;7.67;6.97;;;;;;;7.81;100.00;99736.56;5089551;28;20225;-61
2022/11/30 06:00:16;;;;;;;6.90;6.30;;;;;;;7.76;100.00;99746.13;5089448;28;20295;-61
2022/11/30 06:02:43;;;;;;;6.50;6.00;;;;;;;7.74;100.00;99745.28;5089638;28;20205;-62
2022/11/30 06:05:10;;;;;;;7.40;6.33;;;;;;;7.67;100.00;99748.00;5089091;28;20205;-62
2022/11/30 06:07:39;;;;;;;7.43;6.23;;;;;;;7.66;100.00;99734.22;5089487;28;20196;-55
2022/11/30 06:10:07;;;;;;;5.93;5.43;;;;;;;7.61;100.00;99741.16;5089339;27;20233;-60
2022/11/30 06:12:34;;;;;;;6.63;5.97;;;;;;;7.64;100.00;99741.13;5108997;28;20244;-61
2022/11/30 06:15:01;;;;;;;6.63;6.00;;;;;;;7.64;100.00;99746.28;5108950;28;20214;-61
2022/11/30 06:17:28;;;;;;;7.00;6.40;;;;;;;7.54;100.00;99747.28;5108926;28;20235;-61
2022/11/30 06:19:54;;;;;;;6.97;5.97;;;;;;;7.59;100.00;99742.91;5108551;28;20244;-61
2022/11/30 06:22:21;;;;;;;7.40;6.53;;;;;;;7.54;100.00;99747.28;5108126;28;20602;-61
2022/11/30 06:24:50;;;;;;;7.90;6.53;;;;;;;7.48;100.00;99760.25;5108931;28;20219;-60
2022/11/30 06:27:16;;;;;;;8.47;6.50;;;;;;;7.41;100.00;99749.16;5108999;28;20222;-61
2022/11/30 06:29:43;;;;;;;9.13;8.23;;;;;;;7.50;100.00;99755.94;5108791;28;20215;-61
2022/11/30 06:32:10;;;;;;;9.33;6.83;;;;;;;7.56;100.00;99764.47;5111868;28;20751;-56
2022/11/30 06:34:37;;;;;;;14.07;10.70;;;;;;;7.62;100.00;99768.69;5112207;28;20330;-56
2022/11/30 06:37:04;;;;;;;12.13;10.93;;;;;;;7.60;100.00;99770.44;5112261;28;20201;-56
2022/11/30 06:39:31;;;;;;;9.67;8.87;;;;;;;7.52;100.00;99767.13;5113420;28;20222;-56
2022/11/30 06:41:59;;;;;;;12.47;10.50;;;;;;;7.51;100.00;99767.97;5113535;28;20656;-62
2022/11/30 06:44:26;;;;;;;11.13;8.67;;;;;;;7.51;100.00;99760.22;5113802;28;20194;-61
2022/11/30 06:46:53;;;;;;;12.33;11.00;;;;;;;7.49;100.00;99765.41;5113450;28;20201;-61
2022/11/30 06:49:20;;;;;;;11.87;10.67;;;;;;;7.40;100.00;99757.78;5112800;28;20222;-61
2022/11/30 06:51:47;;;;;;;12.83;9.60;;;;;;;7.44;100.00;99774.97;5113317;28;20244;-61
2022/11/30 06:54:14;;;;;;;12.17;10.87;;;;;;;7.49;100.00;99767.16;5113282;28;20286;-60
2022/11/30 06:56:40;;;;;;;11.70;10.50;;;;;;;7.59;100.00;99758.41;5113507;28;20663;-60
2022/11/30 06:59:09;;;;;;;11.90;8.33;;;;;;;7.61;100.00;99764.41;5113363;28;20218;-61
2022/11/30 07:01:36;;;;;;;8.43;6.57;;;;;;;7.66;100.00;99767.81;5113142;28;20194;-57
2022/11/30 07:04:03;;;;;;;6.80;5.70;;;;;;;7.61;100.00;99769.56;5112683;28;20769;-61
2022/11/30 07:06:30;;;;;;;6.30;5.70;;;;;;;7.62;100.00;99773.88;5113144;28;20282;-61
2022/11/30 07:08:57;;;;;;;11.83;7.83;;;;;;;7.54;100.00;99775.69;5112676;28;20281;-61
2022/11/30 07:11:24;;;;;;;12.20;9.20;;;;;;;7.59;100.00;99774.75;5113191;28;20205;-59
2022/11/30 07:13:51;;;;;;;7.47;6.27;;;;;;;7.62;100.00;99781.63;5112744;28;20237;-61
2022/11/30 07:16:19;;;;;;;5.77;5.30;;;;;;;7.60;100.00;99780.78;5112900;28;20285;-61
2022/11/30 07:18:46;;;;;;;6.13;5.53;;;;;;;7.53;100.00;99763.66;5112349;28;20230;-61
2022/11/30 07:21:13;;;;;;;9.03;8.20;;;;;;;7.75;100.00;99785.75;5112661;28;20202;-61
2022/11/30 07:26:25;;;;;;;5.50;4.93;;;;;;;7.79;100.00;99786.59;5112725;28;20202;-61
2022/11/30 07:28:56;;;;;;;5.97;5.40;;;;;;;7.82;100.00;99791.69;5112451;28;20201;-56
2022/11/30 07:31:27;;;;;;;6.10;5.50;;;;;;;7.71;100.00;99780.63;5112648;28;20290;-58
2022/11/30 07:33:55;;;;;;;6.60;6.00;;;;;;;7.81;100.00;99797.72;5112407;28;20228;-58
2022/11/30 07:36:24;;;;;;;5.37;4.90;;;;;;;7.76;100.00;99794.38;5112735;28;20674;-56
2022/11/30 07:38:51;;;;;;;4.93;4.50;;;;;;;7.68;100.00;99778.94;5112373;28;20225;-56
2022/11/30 07:41:18;;;;;;;5.07;4.60;;;;;;;7.62;100.00;99786.78;5112058;28;20195;-58
2022/11/30 07:43:45;;;;;;;4.80;4.40;;;;;;;7.57;100.00;99791.13;5112478;28;20191;-57
2022/11/30 07:46:14;;;;;;;6.73;5.43;;;;;;;7.59;100.00;99791.97;5112559;28;20218;-57
2022/11/30 07:48:43;;;;;;;5.53;5.00;;;;;;;7.60;100.00;99791.13;5112535;28;20573;-58
2022/11/30 07:51:13;;;;;;;6.33;5.43;;;;;;;7.65;100.00;99791.91;5111784;28;20199;-58
2022/11/30 07:53:40;;;;;;;9.67;6.57;;;;;;;7.58;100.00;99780.78;5112350;28;20582;-58
2022/11/30 07:56:09;;;;;;;8.17;5.40;;;;;;;7.68;100.00;99788.41;5112464;28;20190;-58
2022/11/30 07:58:36;;;;;;;6.80;5.70;;;;;;;7.63;100.00;99781.59;5108794;27;20226;-58
2022/11/30 08:01:04;;;;;;;12.53;8.67;;;;;;;7.71;100.00;99803.88;5111802;28;20229;-60
2022/11/30 08:03:31;;;;;;;12.47;8.17;;;;;;;7.73;100.00;99795.25;5109986;27;20222;-61
2022/11/30 08:06:05;;;;;;;10.17;7.87;;;;;;;7.72;100.00;99801.28;5111817;28;20265;-59
2022/11/30 08:08:33;;;;;;;6.87;5.67;;;;;;;7.62;100.00;99794.53;5110708;28;20250;-60
2022/11/30 08:11:01;;;;;;;6.30;5.70;;;;;;;7.66;100.00;99801.38;5111341;28;20194;-60
2022/11/30 08:13:28;;;;;;;4.93;4.43;;;;;;;7.71;100.00;99802.16;5111996;28;20726;-60
2022/11/30 08:15:55;;;;;;;9.03;5.47;;;;;;;7.66;100.00;99806.56;5111107;28;20721;-58
2022/11/30 08:18:22;;;;;;;7.03;5.03;;;;;;;7.71;100.00;99786.66;5111721;28;20225;-58
2022/11/30 08:20:56;;;;;;;6.47;5.83;;;;;;;7.82;100.00;99807.19;5111745;28;20191;-58
2022/11/30 08:23:25;;;;;;;5.00;4.30;;;;;;;7.76;100.00;99792.63;5111740;28;20204;-59
2022/11/30 08:25:52;;;;;;;6.93;5.90;;;;;;;7.85;100.00;99796.81;5111576;27;20198;-58
2022/11/30 08:28:19;;;;;;;7.53;6.10;;;;;;;7.86;100.00;99796.81;5111985;28;20270;-58
2022/11/30 08:30:46;;;;;;;8.20;7.07;;;;;;;7.93;100.00;99801.00;5111774;28;20200;-58
2022/11/30 08:33:13;;;;;;;4.83;4.47;;;;;;;7.87;100.00;99805.41;5111542;28;20207;-57
2022/11/30 08:35:40;;;;;;;6.07;5.20;;;;;;;7.87;100.00;99802.84;5110723;28;20248;-61
2022/11/30 08:38:07;;;;;;;5.60;4.40;;;;;;;7.84;100.00;99797.69;5111238;28;20219;-62
2022/11/30 08:40:35;;;;;;;5.13;4.63;;;;;;;7.77;100.00;99790.91;5108322;28;20281;-57
2022/11/30 08:43:02;;;;;;;5.17;4.70;;;;;;;7.84;100.00;99795.97;5105697;28;20271;-57
2022/11/30 08:45:29;;;;;;;7.13;5.07;;;;;;;7.79;100.00;99786.59;5111322;27;20202;-57
2022/11/30 08:47:56;;;;;;;6.27;5.27;;;;;;;7.88;100.00;99791.63;5110444;27;20197;-56
2022/11/30 08:50:23;;;;;;;10.63;5.93;;;;;;;7.86;100.00;99789.06;5110860;28;20195;-57
2022/11/30 08:52:50;;;;;;;6.13;5.20;;;;;;;7.79;100.00;99782.25;5111217;28;20203;-58
2022/11/30 08:55:16;;;;;;;6.40;5.80;;;;;;;7.84;100.00;99792.53;5110766;28;20666;-58
2022/11/30 08:57:45;;;;;;;8.90;7.33;;;;;;;7.93;100.00;99790.66;5111006;28;20212;-58
2022/11/30 09:00:13;;;;;;;6.63;5.70;;;;;;;7.94;100.00;99788.94;5111041;28;20229;-64
2022/11/30 09:02:40;;;;;;;6.30;5.70;;;;;;;8.02;100.00;99789.69;5111105;28;20205;-64
2022/11/30 09:05:07;;;;;;;8.70;6.47;;;;;;;8.02;100.00;99787.94;5110728;28;20671;-62
2022/11/30 09:07:34;;;;;;;12.03;8.33;;;;;;;7.98;100.00;99786.31;5111030;28;20226;-56
2022/11/30 09:10:01;;;;;;;6.93;5.60;;;;;;;7.95;100.00;99795.81;5110863;28;20205;-63
2022/11/30 09:12:28;;;;;;;9.20;6.93;;;;;;;7.82;100.00;99792.53;5111356;28;20606;-64
2022/11/30 09:14:56;;;;;;;6.33;5.73;;;;;;;7.82;100.00;99799.44;5110815;28;20195;-64
2022/11/30 09:17:23;;;;;;;9.73;6.87;;;;;;;7.80;100.00;99783.94;5110268;28;20194;-58
2022/11/30 09:19:50;;;;;;;7.43;6.20;;;;;;;7.86;100.00;99776.13;5110574;28;20237;-57
2022/11/30 09:22:18;;;;;;;8.23;6.27;;;;;;;7.93;100.00;99785.50;5110886;28;20697;-57
2022/11/30 09:24:45;;;;;;;6.50;5.90;;;;;;;7.93;100.00;99776.91;5110619;28;20205;-57
2022/11/30 09:27:12;;;;;;;6.90;6.20;;;;;;;7.88;100.00;99776.97;5110461;28;20201;-57
2022/11/30 09:29:38;;;;;;;7.37;6.37;;;;;;;7.91;100.00;99779.50;5110109;28;20189;-57
2022/11/30 09:32:07;;;;;;;13.93;10.40;;;;;;;7.84;100.00;99767.53;5109744;28;20202;-57
2022/11/30 09:34:34;;;;;;;7.57;6.37;;;;;;;7.98;100.00;99777.69;5109841;28;20222;-57
2022/11/30 09:37:01;;;;;;;8.03;7.23;;;;;;;8.05;100.00;99781.88;5110460;28;20588;-65
2022/11/30 09:39:28;;;;;;;9.00;7.83;;;;;;;8.02;100.00;99775.03;5110415;28;20249;-63
2022/11/30 09:42:14;;;;;;;13.43;9.57;;;;;;;8.13;100.00;99780.03;5110144;27;20200;-64
2022/11/30 09:44:51;;;;;;;15.63;11.80;;;;;;;8.02;100.00;99763.84;5110424;28;20198;-64
2022/11/30 09:47:39;;;;;;;12.30;7.93;;;;;;;8.12;100.00;99774.91;5110219;28;20281;-64
2022/11/30 09:50:13;;;;;;;12.40;8.23;;;;;;;8.09;100.00;99769.78;5109641;28;20190;-57
2022/11/30 09:52:44;;;;;;;14.23;11.20;;;;;;;8.06;100.00;99777.56;5109754;28;20578;-57
2022/11/30 09:55:16;;;;;;;17.57;12.07;;;;;;;8.00;100.00;99755.28;5110172;28;20271;-57
2022/11/30 09:57:46;;;;;;;8.90;7.83;;;;;;;8.00;100.00;99766.47;5109827;28;20195;-57
2022/11/30 10:00:17;;;;;;;10.77;8.30;;;;;;;8.03;100.00;99770.72;5109965;28;20615;-57
2022/11/30 10:02:47;;;;;;;12.27;10.50;;;;;;;7.97;100.00;99779.44;5110055;27;20714;-66
2022/11/30 10:05:15;;;;;;;15.40;10.70;;;;;;;8.02;100.00;99774.16;5109663;28;20281;-67
2022/11/30 10:07:55;;;;;;;12.73;11.07;;;;;;;8.02;100.00;99774.16;5109905;28;20286;-67
2022/11/30 10:10:32;;;;;;;15.10;11.67;;;;;;;7.98;100.00;99778.56;5109959;28;20197;-65
2022/11/30 10:13:09;;;;;;;12.40;10.10;;;;;;;7.98;100.00;99780.28;5109520;28;20194;-65
2022/11/30 10:15:49;;;;;;;19.60;12.13;;;;;;;8.00;100.00;99776.81;5109504;28;20194;-66
2022/11/30 10:18:25;;;;;;;14.83;9.50;;;;;;;7.90;100.00;99780.38;5109830;28;20198;-66
2022/11/30 10:21:01;;;;;;;19.27;12.63;;;;;;;7.87;100.00;99780.44;5110002;28;20198;-65
2022/11/30 10:23:51;;;;;;;10.23;8.60;;;;;;;7.87;100.00;99777.00;5109754;28;20210;-60
2022/11/30 10:26:26;;;;;;;13.40;10.10;;;;;;;7.82;100.00;99763.25;5109539;28;20202;-59
2022/11/30 10:28:54;;;;;;;10.33;8.87;;;;;;;7.85;100.00;99765.81;5109757;28;20226;-58
2022/11/30 10:31:28;;;;;;;10.17;8.37;;;;;;;7.95;100.00;99776.00;5109929;28;20191;-66
2022/11/30 10:34:03;;;;;;;10.53;9.13;;;;;;;7.99;100.00;99775.09;5109791;28;20666;-65
2022/11/30 10:36:38;;;;;;;14.47;10.83;;;;;;;8.09;100.00;99778.41;5109485;28;20198;-58
2022/11/30 10:39:12;;;;;;;17.07;11.03;;;;;;;8.10;100.00;99776.66;5109503;28;20308;-58
2022/11/30 10:41:45;;;;;;;8.73;7.73;;;;;;;8.13;100.00;99781.78;5109016;28;20194;-59
2022/11/30 10:44:17;;;;;;;9.53;8.53;;;;;;;8.21;100.00;99785.13;5109274;28;20208;-58
2022/11/30 10:46:55;;;;;;;9.83;8.27;;;;;;;8.21;100.00;99780.81;5109514;28;20206;-59
2022/11/30 10:49:27;;;;;;;12.77;10.40;;;;;;;8.21;100.00;99780.81;5109432;28;20194;-58
2022/11/30 10:51:59;;;;;;;22.77;13.00;;;;;;;8.16;100.00;99781.72;5109559;28;20243;-59
2022/11/30 10:54:26;;;;;;;17.20;11.33;;;;;;;8.20;100.00;99783.41;5099222;28;20204;-58
2022/11/30 10:56:53;;;;;;;12.37;9.67;;;;;;;8.18;100.00;99777.41;5088926;28;20205;-59
2022/11/30 10:59:24;;;;;;;7.40;6.60;;;;;;;8.19;100.00;99777.38;5088773;28;21001;-59
2022/11/30 11:01:52;;;;;;;10.13;8.83;;;;;;;8.22;100.00;99777.34;5088771;28;20604;-66
2022/11/30 11:04:22;;;;;;;12.70;9.13;;;;;;;8.16;100.00;99769.66;5088960;28;20206;-66
2022/11/30 11:06:53;;;;;;;9.63;8.03;;;;;;;8.16;100.00;99771.38;5088922;28;20206;-65
2022/11/30 11:09:33;;;;;;;8.83;7.50;;;;;;;8.22;100.00;99767.00;5088536;28;20322;-66
2022/11/30 11:12:01;;;;;;;7.90;7.20;;;;;;;8.17;100.00;99761.03;5107361;28;20652;-65
2022/11/30 11:14:28;;;;;;;10.53;9.00;;;;;;;8.23;100.00;99762.69;5108694;28;20219;-66
2022/11/30 11:16:58;;;;;;;17.40;13.40;;;;;;;8.24;100.00;99765.22;5108855;28;20585;-67
2022/11/30 11:19:32;;;;;;;21.23;15.73;;;;;;;8.35;100.00;99759.94;5110262;28;20230;-66
2022/11/30 11:22:02;;;;;;;21.10;15.70;;;;;;;8.29;100.00;99754.81;5113121;27;20197;-66
2022/11/30 11:24:29;;;;;;;20.53;14.40;;;;;;;8.40;100.00;99754.69;5112777;28;20201;-58
2022/11/30 11:26:57;;;;;;;15.33;10.90;;;;;;;8.41;100.00;99751.22;5112728;28;20198;-58
2022/11/30 11:29:31;;;;;;;27.87;17.37;;;;;;;8.45;100.00;99747.72;5113061;28;20578;-59
2022/11/30 11:32:17;;;;;;;208.90;72.70;;;;;;;8.34;100.00;99737.53;5112806;28;20215;-58
2022/11/30 11:34:44;;;;;;;32.87;15.73;;;;;;;8.36;100.00;99748.69;5112795;28;20591;-58
2022/11/30 11:37:19;;;;;;;18.10;11.70;;;;;;;8.31;100.00;99745.31;5112412;28;20556;-59